createdAt,value
2018-02-25T00:00:33.899Z,5.80
2018-02-25T00:01:33.804Z,5.40
2018-02-25T00:02:33.718Z,6.20
2018-02-25T00:03:33.619Z,6.40
2018-02-25T00:04:33.540Z,5.60
2018-02-25T00:05:33.445Z,6.50
2018-02-25T00:06:33.379Z,5.40
2018-02-25T00:07:33.273Z,6.10
2018-02-25T00:08:33.227Z,5.70
2018-02-25T00:09:33.097Z,5.60
2018-02-25T00:10:33.015Z,5.80
2018-02-25T00:11:32.917Z,6.80
2018-02-25T00:12:32.849Z,5.30
2018-02-25T00:13:32.745Z,6.00
2018-02-25T00:14:32.664Z,7.10
2018-02-25T00:15:32.574Z,7.30
2018-02-25T00:16:32.488Z,7.00
2018-02-25T00:17:32.406Z,6.70
2018-02-25T00:18:32.304Z,5.80
2018-02-25T00:19:32.218Z,7.80
2018-02-25T00:20:32.123Z,6.80
2018-02-25T00:21:32.036Z,6.90
2018-02-25T00:22:31.954Z,6.90
2018-02-25T00:23:31.872Z,5.90
2018-02-25T00:24:31.775Z,7.70
2018-02-25T00:25:31.690Z,7.50
2018-02-25T00:26:31.604Z,6.00
2018-02-25T00:27:31.522Z,5.60
2018-02-25T00:28:31.427Z,7.30
2018-02-25T00:29:31.340Z,5.40
2018-02-25T00:30:31.253Z,8.00
2018-02-25T00:31:31.172Z,8.10
2018-02-25T00:32:31.070Z,7.10
2018-02-25T00:33:30.989Z,7.10
2018-02-25T00:34:30.896Z,7.80
2018-02-25T00:35:30.799Z,5.70
2018-02-25T00:36:30.726Z,5.60
2018-02-25T00:37:30.622Z,6.20
2018-02-25T00:38:30.540Z,7.10
2018-02-25T00:39:30.453Z,7.00
2018-02-25T00:40:30.361Z,4.90
2018-02-25T00:41:30.276Z,7.00
2018-02-25T00:42:30.185Z,6.40
2018-02-25T00:43:30.100Z,5.10
2018-02-25T00:44:30.021Z,5.30
2018-02-25T00:45:29.928Z,5.70
2018-02-25T00:46:29.861Z,6.60
2018-02-25T00:47:29.753Z,7.00
2018-02-25T00:48:29.663Z,6.10
2018-02-25T00:49:29.584Z,7.20
2018-02-25T00:50:29.472Z,5.80
2018-02-25T00:51:29.394Z,8.40
2018-02-25T00:52:29.302Z,7.50
2018-02-25T00:53:29.214Z,6.10
2018-02-25T00:54:29.134Z,6.00
2018-02-25T00:55:29.058Z,5.90
2018-02-25T00:56:28.955Z,5.80
2018-02-25T00:57:28.864Z,5.10
2018-02-25T00:58:28.779Z,5.90
2018-02-25T00:59:28.699Z,6.60
2018-02-25T01:00:28.602Z,7.30
2018-02-25T01:01:28.513Z,7.40
2018-02-25T01:02:28.429Z,7.60
2018-02-25T01:03:28.336Z,7.30
2018-02-25T01:04:28.256Z,7.60
2018-02-25T01:05:28.154Z,7.60
2018-02-25T01:06:28.068Z,8.60
2018-02-25T01:07:27.973Z,6.40
2018-02-25T01:08:27.891Z,6.20
2018-02-25T01:09:27.799Z,7.10
2018-02-25T01:10:27.727Z,7.10
2018-02-25T01:11:27.628Z,6.50
2018-02-25T01:12:27.538Z,7.30
2018-02-25T01:13:27.460Z,8.20
2018-02-25T01:14:27.364Z,7.50
2018-02-25T01:15:27.280Z,5.90
2018-02-25T01:16:27.195Z,6.50
2018-02-25T01:17:27.108Z,5.50
2018-02-25T01:18:27.006Z,7.40
2018-02-25T01:19:26.938Z,8.00
2018-02-25T01:20:26.825Z,7.10
2018-02-25T01:21:26.749Z,6.40
2018-02-25T01:22:26.651Z,6.40
2018-02-25T01:23:26.570Z,5.20
2018-02-25T01:24:26.490Z,6.20
2018-02-25T01:25:26.399Z,6.90
2018-02-25T01:26:26.308Z,6.20
2018-02-25T01:27:26.220Z,5.10
2018-02-25T01:28:26.132Z,5.20
2018-02-25T01:29:26.055Z,4.30
2018-02-25T01:30:25.950Z,5.40
2018-02-25T01:31:25.860Z,7.00
2018-02-25T01:32:25.823Z,6.60
2018-02-25T01:33:25.684Z,6.20
2018-02-25T01:34:25.600Z,6.20
2018-02-25T01:35:25.509Z,6.10
2018-02-25T01:36:25.417Z,6.40
2018-02-25T01:37:25.330Z,6.20
2018-02-25T01:38:25.241Z,6.90
2018-02-25T01:39:25.152Z,5.60
2018-02-25T01:40:25.078Z,7.30
2018-02-25T01:41:24.984Z,7.40
2018-02-25T01:42:24.903Z,5.50
2018-02-25T01:43:24.814Z,6.30
2018-02-25T01:44:24.716Z,7.30
2018-02-25T01:45:24.622Z,6.90
2018-02-25T01:46:24.530Z,4.90
2018-02-25T01:47:24.455Z,6.40
2018-02-25T01:48:24.359Z,5.80
2018-02-25T01:49:24.272Z,7.60
2018-02-25T01:50:24.182Z,6.00
2018-02-25T01:51:24.102Z,7.50
2018-02-25T01:52:24.011Z,7.30
2018-02-25T01:53:23.929Z,7.90
2018-02-25T01:54:23.836Z,6.40
2018-02-25T01:55:23.754Z,6.80
2018-02-25T01:56:23.660Z,7.50
2018-02-25T01:57:23.561Z,7.30
2018-02-25T01:58:23.487Z,7.30
2018-02-25T01:59:23.379Z,9.10
2018-02-25T02:00:23.308Z,7.30
2018-02-25T02:01:23.212Z,7.00
2018-02-25T02:02:23.129Z,7.70
2018-02-25T02:03:23.035Z,6.30
2018-02-25T02:04:22.959Z,6.80
2018-02-25T02:05:22.860Z,6.70
2018-02-25T02:06:22.768Z,6.90
2018-02-25T02:07:22.687Z,7.40
2018-02-25T02:08:22.607Z,7.20
2018-02-25T02:09:22.514Z,6.40
2018-02-25T02:10:22.413Z,8.30
2018-02-25T02:11:22.332Z,8.70
2018-02-25T02:12:22.232Z,6.30
2018-02-25T02:13:22.150Z,8.00
2018-02-25T02:14:22.057Z,6.00
2018-02-25T02:15:21.983Z,5.90
2018-02-25T02:16:21.888Z,6.80
2018-02-25T02:17:21.808Z,7.30
2018-02-25T02:18:21.719Z,6.20
2018-02-25T02:19:21.624Z,7.50
2018-02-25T02:20:21.536Z,8.90
2018-02-25T02:21:21.451Z,6.90
2018-02-25T02:22:21.359Z,8.90
2018-02-25T02:23:21.259Z,9.80
2018-02-25T02:24:21.178Z,7.30
2018-02-25T02:25:21.089Z,8.50
2018-02-25T02:26:21.009Z,6.70
2018-02-25T02:27:20.911Z,7.00
2018-02-25T02:28:20.835Z,7.90
2018-02-25T02:29:20.746Z,7.40
2018-02-25T02:30:20.648Z,7.50
2018-02-25T02:31:20.559Z,6.90
2018-02-25T02:32:20.487Z,6.70
2018-02-25T02:33:20.390Z,7.90
2018-02-25T02:34:20.304Z,6.20
2018-02-25T02:35:20.202Z,8.30
2018-02-25T02:36:20.117Z,6.20
2018-02-25T02:37:20.037Z,6.40
2018-02-25T02:38:19.934Z,6.30
2018-02-25T02:39:19.856Z,6.80
2018-02-25T02:40:19.769Z,7.60
2018-02-25T02:41:19.674Z,5.80
2018-02-25T02:42:19.598Z,6.60
2018-02-25T02:43:19.503Z,7.30
2018-02-25T02:44:19.412Z,6.90
2018-02-25T02:45:19.334Z,5.60
2018-02-25T02:46:19.249Z,5.70
2018-02-25T02:47:19.142Z,7.20
2018-02-25T02:48:19.073Z,5.90
2018-02-25T02:49:18.969Z,5.90
2018-02-25T02:50:18.891Z,5.80
2018-02-25T02:51:18.798Z,6.30
2018-02-25T02:52:18.705Z,6.80
2018-02-25T02:53:18.616Z,6.40
2018-02-25T02:54:18.544Z,5.30
2018-02-25T02:55:18.443Z,7.50
2018-02-25T02:56:18.355Z,7.10
2018-02-25T02:57:18.261Z,6.30
2018-02-25T02:58:18.166Z,7.40
2018-02-25T02:59:18.079Z,5.70
2018-02-25T03:00:18.006Z,6.00
2018-02-25T03:01:17.905Z,5.60
2018-02-25T03:02:17.814Z,5.70
2018-02-25T03:03:17.737Z,5.00
2018-02-25T03:04:17.642Z,5.80
2018-02-25T03:05:17.551Z,5.20
2018-02-25T03:06:17.473Z,6.10
2018-02-25T03:07:17.378Z,5.80
2018-02-25T03:08:17.292Z,5.90
2018-02-25T03:09:17.206Z,5.80
2018-02-25T03:10:17.113Z,5.30
2018-02-25T03:11:17.018Z,4.80
2018-02-25T03:12:16.943Z,7.00
2018-02-25T03:13:16.846Z,5.70
2018-02-25T03:14:16.755Z,6.30
2018-02-25T03:15:16.674Z,5.50
2018-02-25T03:16:16.588Z,7.00
2018-02-25T03:17:16.491Z,5.80
2018-02-25T03:18:16.401Z,5.80
2018-02-25T03:19:16.321Z,7.20
2018-02-25T03:20:16.217Z,6.10
2018-02-25T03:21:16.145Z,6.90
2018-02-25T03:22:16.044Z,6.50
2018-02-25T03:23:15.961Z,6.70
2018-02-25T03:24:15.864Z,6.40
2018-02-25T03:25:15.793Z,6.30
2018-02-25T03:26:15.688Z,7.00
2018-02-25T03:27:15.610Z,7.90
2018-02-25T03:28:15.524Z,6.90
2018-02-25T03:29:15.430Z,7.50
2018-02-25T03:30:15.340Z,6.00
2018-02-25T03:31:15.253Z,7.40
2018-02-25T03:32:15.166Z,7.30
2018-02-25T03:33:15.071Z,7.20
2018-02-25T03:34:14.984Z,7.00
2018-02-25T03:35:14.892Z,7.50
2018-02-25T03:36:14.824Z,7.50
2018-02-25T03:37:14.714Z,7.80
2018-02-25T03:38:14.644Z,7.50
2018-02-25T03:39:14.544Z,7.40
2018-02-25T03:40:14.442Z,7.10
2018-02-25T03:41:14.365Z,6.80
2018-02-25T03:42:14.272Z,6.20
2018-02-25T03:43:14.187Z,8.80
2018-02-25T03:44:14.097Z,7.00
2018-02-25T03:45:14.010Z,6.60
2018-02-25T03:46:13.919Z,7.40
2018-02-25T03:47:13.832Z,7.70
2018-02-25T03:48:13.739Z,8.60
2018-02-25T03:49:13.665Z,6.80
2018-02-25T03:50:13.566Z,7.40
2018-02-25T03:51:13.466Z,7.40
2018-02-25T03:52:13.392Z,7.20
2018-02-25T03:53:13.294Z,8.90
2018-02-25T03:54:13.226Z,7.30
2018-02-25T03:55:13.122Z,5.60
2018-02-25T03:56:13.036Z,6.10
2018-02-25T03:57:12.952Z,5.50
2018-02-25T03:58:12.856Z,6.80
2018-02-25T03:59:12.767Z,7.30
2018-02-25T04:00:12.673Z,7.10
2018-02-25T04:01:12.595Z,6.40
2018-02-25T04:02:12.503Z,7.40
2018-02-25T04:03:12.419Z,7.00
2018-02-25T04:04:12.327Z,6.70
2018-02-25T04:05:12.244Z,7.30
2018-02-25T04:06:12.149Z,8.90
2018-02-25T04:07:12.062Z,6.90
2018-02-25T04:08:11.975Z,6.40
2018-02-25T04:09:11.892Z,7.30
2018-02-25T04:10:11.800Z,7.70
2018-02-25T04:11:11.694Z,9.50
2018-02-25T04:12:11.610Z,8.60
2018-02-25T04:13:11.520Z,7.40
2018-02-25T04:14:11.438Z,7.50
2018-02-25T04:15:11.356Z,8.30
2018-02-25T04:16:11.270Z,7.30
2018-02-25T04:17:11.172Z,7.20
2018-02-25T04:18:11.083Z,8.30
2018-02-25T04:19:11.001Z,8.40
2018-02-25T04:20:10.899Z,7.50
2018-02-25T04:21:10.819Z,7.00
2018-02-25T04:22:10.729Z,8.10
2018-02-25T04:23:10.639Z,7.90
2018-02-25T04:24:10.545Z,6.90
2018-02-25T04:25:10.470Z,8.60
2018-02-25T04:26:10.380Z,7.40
2018-02-25T04:27:10.286Z,7.90
2018-02-25T04:28:10.206Z,8.60
2018-02-25T04:29:10.120Z,8.60
2018-02-25T04:30:10.022Z,7.00
2018-02-25T04:31:09.927Z,8.10
2018-02-25T04:32:09.844Z,7.70
2018-02-25T04:33:09.758Z,7.60
2018-02-25T04:34:09.669Z,6.80
2018-02-25T04:35:09.573Z,8.10
2018-02-25T04:36:09.491Z,8.10
2018-02-25T04:37:09.398Z,7.20
2018-02-25T04:38:09.306Z,8.20
2018-02-25T04:39:09.235Z,8.30
2018-02-25T04:40:09.123Z,7.90
2018-02-25T04:41:09.048Z,8.90
2018-02-25T04:42:08.962Z,8.00
2018-02-25T04:43:08.869Z,7.90
2018-02-25T04:44:08.776Z,6.50
2018-02-25T04:45:08.692Z,8.20
2018-02-25T04:46:08.607Z,7.30
2018-02-25T04:47:08.510Z,7.50
2018-02-25T04:48:08.424Z,7.20
2018-02-25T04:49:08.325Z,6.50
2018-02-25T04:50:08.242Z,8.30
2018-02-25T04:51:08.147Z,6.90
2018-02-25T04:52:08.064Z,8.00
2018-02-25T04:53:07.972Z,8.10
2018-02-25T04:54:07.877Z,7.80
2018-02-25T04:55:07.789Z,7.00
2018-02-25T04:56:07.704Z,8.20
2018-02-25T04:57:07.629Z,8.50
2018-02-25T04:58:07.524Z,7.30
2018-02-25T04:59:07.448Z,9.20
2018-02-25T05:00:07.361Z,7.90
2018-02-25T05:01:07.294Z,7.80
2018-02-25T05:02:07.177Z,9.10
2018-02-25T05:03:07.124Z,7.70
2018-02-25T05:04:07.005Z,8.20
2018-02-25T05:05:06.909Z,8.30
2018-02-25T05:06:06.820Z,8.00
2018-02-25T05:07:06.730Z,9.90
2018-02-25T05:08:06.647Z,9.20
2018-02-25T05:09:06.558Z,8.10
2018-02-25T05:10:06.467Z,7.60
2018-02-25T05:11:06.386Z,8.50
2018-02-25T05:12:06.280Z,8.50
2018-02-25T05:13:06.209Z,10.10
2018-02-25T05:14:06.107Z,8.30
2018-02-25T05:15:06.018Z,8.80
2018-02-25T05:16:05.932Z,8.50
2018-02-25T05:17:05.849Z,8.80
2018-02-25T05:18:05.752Z,7.90
2018-02-25T05:19:05.676Z,9.20
2018-02-25T05:20:05.581Z,7.10
2018-02-25T05:21:05.480Z,9.10
2018-02-25T05:22:05.409Z,9.00
2018-02-25T05:23:05.308Z,7.90
2018-02-25T05:24:05.238Z,6.80
2018-02-25T05:25:05.132Z,8.90
2018-02-25T05:26:05.046Z,7.60
2018-02-25T05:27:04.962Z,8.60
2018-02-25T05:28:04.873Z,8.10
2018-02-25T05:29:04.784Z,7.50
2018-02-25T05:30:04.676Z,8.80
2018-02-25T05:31:04.602Z,8.20
2018-02-25T05:32:04.505Z,9.20
2018-02-25T05:33:04.422Z,7.60
2018-02-25T05:34:04.339Z,10.60
2018-02-25T05:35:04.247Z,8.70
2018-02-25T05:36:04.153Z,9.30
2018-02-25T05:37:04.066Z,10.00
2018-02-25T05:38:03.971Z,7.20
2018-02-25T05:39:03.885Z,8.10
2018-02-25T05:40:03.795Z,9.90
2018-02-25T05:41:03.701Z,9.80
2018-02-25T05:42:03.645Z,10.70
2018-02-25T05:43:03.531Z,8.90
2018-02-25T05:44:03.449Z,9.60
2018-02-25T05:45:03.358Z,8.10
2018-02-25T05:46:03.254Z,8.10
2018-02-25T05:47:03.168Z,9.00
2018-02-25T05:48:03.088Z,9.20
2018-02-25T05:49:02.995Z,9.30
2018-02-25T05:50:02.907Z,7.40
2018-02-25T05:51:02.826Z,9.50
2018-02-25T05:52:02.728Z,7.80
2018-02-25T05:53:02.642Z,7.30
2018-02-25T05:54:02.559Z,7.90
2018-02-25T05:55:02.462Z,8.80
2018-02-25T05:56:02.373Z,9.70
2018-02-25T05:57:02.280Z,9.80
2018-02-25T05:58:02.210Z,8.10
2018-02-25T05:59:02.117Z,9.40
2018-02-25T06:00:02.035Z,9.00
2018-02-25T06:01:01.944Z,7.70
2018-02-25T06:02:01.843Z,10.10
2018-02-25T06:03:01.746Z,9.30
2018-02-25T06:04:01.659Z,8.60
2018-02-25T06:05:01.582Z,10.00
2018-02-25T06:06:01.488Z,8.10
2018-02-25T06:07:01.401Z,8.50
2018-02-25T06:08:01.306Z,9.50
2018-02-25T06:09:01.210Z,7.30
2018-02-25T06:10:01.128Z,8.40
2018-02-25T06:11:01.032Z,8.70
2018-02-25T06:12:00.948Z,10.00
2018-02-25T06:13:00.859Z,8.10
2018-02-25T06:14:00.786Z,9.70
2018-02-25T06:15:00.680Z,10.80
2018-02-25T06:16:00.598Z,9.10
2018-02-25T06:17:00.511Z,9.60
2018-02-25T06:18:00.411Z,9.30
2018-02-25T06:19:00.329Z,9.70
2018-02-25T06:20:00.233Z,9.10
2018-02-25T06:21:00.167Z,9.50
2018-02-25T06:22:00.065Z,9.80
2018-02-25T06:22:59.980Z,12.30
2018-02-25T06:23:59.886Z,10.00
2018-02-25T06:24:59.790Z,10.60
2018-02-25T06:25:59.719Z,10.10
2018-02-25T06:26:59.614Z,9.40
2018-02-25T06:27:59.521Z,9.80
2018-02-25T06:28:59.482Z,9.10
2018-02-25T06:29:59.347Z,9.90
2018-02-25T06:30:59.263Z,7.20
2018-02-25T06:31:59.176Z,8.90
2018-02-25T06:32:59.082Z,8.70
2018-02-25T06:33:58.986Z,10.20
2018-02-25T06:34:58.900Z,9.70
2018-02-25T06:35:58.816Z,9.30
2018-02-25T06:36:58.732Z,10.40
2018-02-25T06:37:58.644Z,8.10
2018-02-25T06:38:58.548Z,9.10
2018-02-25T06:39:58.469Z,8.90
2018-02-25T06:40:58.372Z,10.10
2018-02-25T06:41:58.275Z,12.10
2018-02-25T06:42:58.188Z,9.70
2018-02-25T06:43:58.096Z,8.60
2018-02-25T06:44:58.018Z,8.90
2018-02-25T06:45:57.931Z,8.90
2018-02-25T06:46:57.834Z,10.60
2018-02-25T06:47:57.762Z,13.20
2018-02-25T06:48:57.660Z,9.60
2018-02-25T06:49:57.566Z,9.00
2018-02-25T06:50:57.496Z,9.90
2018-02-25T06:51:57.385Z,8.90
2018-02-25T06:52:57.304Z,11.30
2018-02-25T06:53:57.213Z,9.70
2018-02-25T06:54:57.123Z,8.50
2018-02-25T06:55:57.038Z,9.30
2018-02-25T06:56:56.949Z,8.50
2018-02-25T06:57:56.871Z,9.20
2018-02-25T06:58:56.768Z,9.80
2018-02-25T06:59:56.675Z,9.40
2018-02-25T07:00:56.594Z,9.20
2018-02-25T07:01:56.500Z,9.50
2018-02-25T07:02:56.420Z,10.30
2018-02-25T07:03:56.331Z,9.10
2018-02-25T07:04:56.242Z,9.30
2018-02-25T07:05:56.161Z,9.40
2018-02-25T07:06:56.070Z,9.70
2018-02-25T07:07:56.006Z,10.60
2018-02-25T07:08:55.898Z,9.00
2018-02-25T07:09:55.790Z,8.80
2018-02-25T07:10:55.702Z,9.70
2018-02-25T07:11:55.618Z,9.60
2018-02-25T07:12:55.542Z,9.30
2018-02-25T07:13:55.440Z,10.40
2018-02-25T07:14:55.360Z,9.40
2018-02-25T07:15:55.260Z,8.50
2018-02-25T07:16:55.188Z,9.60
2018-02-25T07:17:55.094Z,10.00
2018-02-25T07:18:55.020Z,10.30
2018-02-25T07:19:54.918Z,8.30
2018-02-25T07:20:54.825Z,11.10
2018-02-25T07:21:54.750Z,10.30
2018-02-25T07:22:54.643Z,9.10
2018-02-25T07:23:54.562Z,8.00
2018-02-25T07:24:54.469Z,9.40
2018-02-25T07:25:54.377Z,8.70
2018-02-25T07:26:54.305Z,9.10
2018-02-25T07:27:54.208Z,8.00
2018-02-25T07:28:54.114Z,8.20
2018-02-25T07:29:54.033Z,8.50
2018-02-25T07:30:53.943Z,8.00
2018-02-25T07:31:53.860Z,9.80
2018-02-25T07:32:53.779Z,9.50
2018-02-25T07:33:53.688Z,7.90
2018-02-25T07:34:53.596Z,7.40
2018-02-25T07:35:53.506Z,6.60
2018-02-25T07:36:53.415Z,7.60
2018-02-25T07:37:53.338Z,7.30
2018-02-25T07:38:53.244Z,9.00
2018-02-25T07:39:53.154Z,8.00
2018-02-25T07:40:53.069Z,6.90
2018-02-25T07:41:53.000Z,9.30
2018-02-25T07:42:52.898Z,7.50
2018-02-25T07:43:52.827Z,7.40
2018-02-25T07:44:52.742Z,6.90
2018-02-25T07:45:52.646Z,7.60
2018-02-25T07:46:52.565Z,8.00
2018-02-25T07:47:52.474Z,7.80
2018-02-25T07:48:52.408Z,7.10
2018-02-25T07:49:52.344Z,8.00
2018-02-25T07:50:52.211Z,5.90
2018-02-25T07:51:52.129Z,9.00
2018-02-25T07:52:52.029Z,6.80
2018-02-25T07:53:51.953Z,7.20
2018-02-25T07:54:51.869Z,7.80
2018-02-25T07:55:51.789Z,8.00
2018-02-25T07:56:51.697Z,6.40
2018-02-25T07:57:51.618Z,5.60
2018-02-25T07:58:51.518Z,6.60
2018-02-25T07:59:51.443Z,6.70
2018-02-25T08:00:51.350Z,6.80
2018-02-25T08:01:51.259Z,6.80
2018-02-25T08:02:51.170Z,6.00
2018-02-25T08:03:51.080Z,6.50
2018-02-25T08:04:50.997Z,6.10
2018-02-25T08:05:50.916Z,6.10
2018-02-25T08:06:50.831Z,5.70
2018-02-25T08:07:50.747Z,6.00
2018-02-25T08:08:50.661Z,7.20
2018-02-25T08:09:50.580Z,6.30
2018-02-25T08:10:50.487Z,6.20
2018-02-25T08:11:50.395Z,5.10
2018-02-25T08:12:50.311Z,6.20
2018-02-25T08:13:50.224Z,6.70
2018-02-25T08:14:50.151Z,7.00
2018-02-25T08:15:50.048Z,5.10
2018-02-25T08:16:49.958Z,5.00
2018-02-25T08:17:49.874Z,5.20
2018-02-25T08:18:49.789Z,6.60
2018-02-25T08:19:49.702Z,5.10
2018-02-25T08:20:49.609Z,5.30
2018-02-25T08:21:49.525Z,6.00
2018-02-25T08:22:49.438Z,6.30
2018-02-25T08:23:49.347Z,5.60
2018-02-25T08:24:49.276Z,5.90
2018-02-25T08:25:49.170Z,7.40
2018-02-25T08:26:49.082Z,5.30
2018-02-25T08:27:48.998Z,5.30
2018-02-25T08:28:48.937Z,6.10
2018-02-25T08:29:48.826Z,5.90
2018-02-25T08:30:48.743Z,4.80
2018-02-25T08:31:48.646Z,5.30
2018-02-25T08:32:48.561Z,4.90
2018-02-25T08:33:48.470Z,4.70
2018-02-25T08:34:48.392Z,5.30
2018-02-25T08:35:48.306Z,5.10
2018-02-25T08:36:48.221Z,4.50
2018-02-25T08:37:48.152Z,4.70
2018-02-25T08:38:48.061Z,5.50
2018-02-25T08:39:47.972Z,4.10
2018-02-25T08:40:47.881Z,5.10
2018-02-25T08:41:47.788Z,4.00
2018-02-25T08:42:47.702Z,4.70
2018-02-25T08:43:47.632Z,4.60
2018-02-25T08:44:47.522Z,4.40
2018-02-25T08:45:47.438Z,5.70
2018-02-25T08:46:47.371Z,5.80
2018-02-25T08:47:47.277Z,6.20
2018-02-25T08:48:47.194Z,4.20
2018-02-25T08:49:47.104Z,5.00
2018-02-25T08:50:47.012Z,5.20
2018-02-25T08:51:46.929Z,4.00
2018-02-25T08:52:46.849Z,5.80
2018-02-25T08:53:46.768Z,4.90
2018-02-25T08:54:46.684Z,4.70
2018-02-25T08:55:46.592Z,5.30
2018-02-25T08:56:46.532Z,5.30
2018-02-25T08:57:46.430Z,4.90
2018-02-25T08:58:46.347Z,5.20
2018-02-25T08:59:46.252Z,5.10
2018-02-25T09:00:46.174Z,4.50
2018-02-25T09:01:46.095Z,4.80
2018-02-25T09:02:46.009Z,5.30
2018-02-25T09:03:45.929Z,3.80
2018-02-25T09:04:45.859Z,4.60
2018-02-25T09:05:45.749Z,4.80
2018-02-25T09:06:45.670Z,4.40
2018-02-25T09:07:45.604Z,4.60
2018-02-25T09:08:45.505Z,4.80
2018-02-25T09:09:45.415Z,4.30
2018-02-25T09:10:45.354Z,5.00
2018-02-25T09:11:45.257Z,5.10
2018-02-25T09:12:45.175Z,4.50
2018-02-25T09:13:45.105Z,4.60
2018-02-25T09:14:45.004Z,5.60
2018-02-25T09:15:44.931Z,4.60
2018-02-25T09:16:44.848Z,5.60
2018-02-25T09:17:44.762Z,7.40
2018-02-25T09:18:44.685Z,4.50
2018-02-25T09:19:44.589Z,4.20
2018-02-25T09:20:44.506Z,3.60
2018-02-25T09:21:44.431Z,4.80
2018-02-25T09:22:44.348Z,4.00
2018-02-25T09:23:44.258Z,4.70
2018-02-25T09:24:44.176Z,4.40
2018-02-25T09:25:44.101Z,3.90
2018-02-25T09:26:44.006Z,4.90
2018-02-25T09:27:43.926Z,4.70
2018-02-25T09:28:43.851Z,4.30
2018-02-25T09:29:43.758Z,4.80
2018-02-25T09:30:43.677Z,4.80
2018-02-25T09:31:43.596Z,4.20
2018-02-25T09:32:43.532Z,4.30
2018-02-25T09:33:43.431Z,4.70
2018-02-25T09:34:43.362Z,4.60
2018-02-25T09:35:43.264Z,4.70
2018-02-25T09:36:43.188Z,4.50
2018-02-25T09:37:43.094Z,4.70
2018-02-25T09:38:43.005Z,4.50
2018-02-25T09:39:42.933Z,5.90
2018-02-25T09:40:42.842Z,6.10
2018-02-25T09:41:42.762Z,5.40
2018-02-25T09:42:42.678Z,5.40
2018-02-25T09:43:42.589Z,5.00
2018-02-25T09:44:42.512Z,4.40
2018-02-25T09:45:42.424Z,3.80
2018-02-25T09:46:42.330Z,3.50
2018-02-25T09:47:42.264Z,4.20
2018-02-25T09:48:42.167Z,4.20
2018-02-25T09:49:42.084Z,4.10
2018-02-25T09:50:42.008Z,4.60
2018-02-25T09:51:41.909Z,4.30
2018-02-25T09:52:41.842Z,4.10
2018-02-25T09:53:41.741Z,4.10
2018-02-25T09:54:41.659Z,4.80
2018-02-25T09:55:41.633Z,3.80
2018-02-25T09:56:41.488Z,3.50
2018-02-25T09:57:41.412Z,4.40
2018-02-25T09:58:41.338Z,4.50
2018-02-25T09:59:41.234Z,4.50
2018-02-25T10:00:41.164Z,4.40
2018-02-25T10:01:41.058Z,5.20
2018-02-25T10:02:40.981Z,4.40
2018-02-25T10:03:40.909Z,4.70
2018-02-25T10:04:40.803Z,4.00
2018-02-25T10:05:40.722Z,4.20
2018-02-25T10:06:40.641Z,4.80
2018-02-25T10:07:40.554Z,4.10
2018-02-25T10:08:40.479Z,4.40
2018-02-25T10:09:40.388Z,4.60
2018-02-25T10:10:40.306Z,5.70
2018-02-25T10:11:40.211Z,3.90
2018-02-25T10:12:40.125Z,4.20
2018-02-25T10:13:40.050Z,5.10
2018-02-25T10:14:39.962Z,4.40
2018-02-25T10:15:39.870Z,4.70
2018-02-25T10:16:39.784Z,4.10
2018-02-25T10:17:39.692Z,4.90
2018-02-25T10:18:39.615Z,5.10
2018-02-25T10:19:39.534Z,4.40
2018-02-25T10:20:39.445Z,4.20
2018-02-25T10:21:39.362Z,7.00
2018-02-25T10:22:39.279Z,4.90
2018-02-25T10:23:39.189Z,5.50
2018-02-25T10:24:39.097Z,4.50
2018-02-25T10:25:39.026Z,5.70
2018-02-25T10:26:38.931Z,4.50
2018-02-25T10:27:38.900Z,5.10
2018-02-25T10:28:38.765Z,4.50
2018-02-25T10:29:38.674Z,4.50
2018-02-25T10:30:38.585Z,3.90
2018-02-25T10:31:38.567Z,4.60
2018-02-25T10:32:38.437Z,4.40
2018-02-25T10:33:38.418Z,4.90
2018-02-25T10:34:38.250Z,6.70
2018-02-25T10:35:38.304Z,4.00
2018-02-25T10:36:38.094Z,4.20
2018-02-25T10:37:38.010Z,4.90
2018-02-25T10:38:38.290Z,4.70
2018-02-25T10:39:37.870Z,4.30
2018-02-25T10:40:37.754Z,5.10
2018-02-25T10:41:37.667Z,4.00
2018-02-25T10:42:37.587Z,4.50
2018-02-25T10:43:37.568Z,4.70
2018-02-25T10:44:37.411Z,4.30
2018-02-25T10:45:37.320Z,4.70
2018-02-25T10:46:37.233Z,5.10
2018-02-25T10:47:37.162Z,4.20
2018-02-25T10:48:37.073Z,4.80
2018-02-25T10:49:36.989Z,4.50
2018-02-25T10:50:36.905Z,4.20
2018-02-25T10:51:36.823Z,4.30
2018-02-25T10:52:36.744Z,4.50
2018-02-25T10:53:36.654Z,4.60
2018-02-25T10:54:36.569Z,5.70
2018-02-25T10:55:36.489Z,4.40
2018-02-25T10:56:36.399Z,3.90
2018-02-25T10:57:36.335Z,5.00
2018-02-25T10:58:36.245Z,5.80
2018-02-25T10:59:36.161Z,3.80
2018-02-25T11:00:36.071Z,4.80
2018-02-25T11:01:35.976Z,4.80
2018-02-25T11:02:35.900Z,5.10
2018-02-25T11:03:35.815Z,4.90
2018-02-25T11:04:35.741Z,4.40
2018-02-25T11:05:35.651Z,5.10
2018-02-25T11:06:35.571Z,4.90
2018-02-25T11:07:35.473Z,5.60
2018-02-25T11:08:35.394Z,4.30
2018-02-25T11:09:35.313Z,5.00
2018-02-25T11:10:35.231Z,5.40
2018-02-25T11:11:35.145Z,3.50
2018-02-25T11:12:35.061Z,4.50
2018-02-25T11:13:34.978Z,4.60
2018-02-25T11:14:34.896Z,6.60
2018-02-25T11:15:34.886Z,4.40
2018-02-25T11:16:34.744Z,4.20
2018-02-25T11:17:34.643Z,7.00
2018-02-25T11:18:34.571Z,4.60
2018-02-25T11:19:34.490Z,4.90
2018-02-25T11:20:34.390Z,3.70
2018-02-25T11:21:34.321Z,4.70
2018-02-25T11:22:34.239Z,3.90
2018-02-25T11:23:34.143Z,4.50
2018-02-25T11:24:34.066Z,3.80
2018-02-25T11:25:33.975Z,4.10
2018-02-25T11:26:33.912Z,4.70
2018-02-25T11:27:33.825Z,4.10
2018-02-25T11:28:33.745Z,4.50
2018-02-25T11:29:33.668Z,4.60
2018-02-25T11:30:33.569Z,4.10
2018-02-25T11:31:33.512Z,4.30
2018-02-25T11:32:33.405Z,3.50
2018-02-25T11:33:33.322Z,4.30
2018-02-25T11:34:33.237Z,4.10
2018-02-25T11:35:33.156Z,4.40
2018-02-25T11:36:33.115Z,5.20
2018-02-25T11:37:32.998Z,5.60
2018-02-25T11:38:32.918Z,4.80
2018-02-25T11:39:32.839Z,3.30
2018-02-25T11:40:32.745Z,3.50
2018-02-25T11:41:32.664Z,3.60
2018-02-25T11:42:32.577Z,4.10
2018-02-25T11:43:32.518Z,3.50
2018-02-25T11:44:32.416Z,3.60
2018-02-25T11:45:32.345Z,3.70
2018-02-25T11:46:32.270Z,4.80
2018-02-25T11:47:32.185Z,4.90
2018-02-25T11:48:32.098Z,4.60
2018-02-25T11:49:32.021Z,3.40
2018-02-25T11:50:31.942Z,3.30
2018-02-25T11:51:31.859Z,4.50
2018-02-25T11:52:31.778Z,3.90
2018-02-25T11:53:31.695Z,4.40
2018-02-25T11:54:31.620Z,3.90
2018-02-25T11:55:31.540Z,3.60
2018-02-25T11:56:31.474Z,4.80
2018-02-25T11:57:31.397Z,3.90
2018-02-25T11:58:31.295Z,3.90
2018-02-25T11:59:31.222Z,3.50
2018-02-25T12:00:31.151Z,4.30
2018-02-25T12:01:31.057Z,3.60
2018-02-25T12:02:30.992Z,4.10
2018-02-25T12:03:30.903Z,3.60
2018-02-25T12:04:30.831Z,3.50
2018-02-25T12:05:30.747Z,3.90
2018-02-25T12:06:30.656Z,3.10
2018-02-25T12:07:30.592Z,3.00
2018-02-25T12:08:30.506Z,2.70
2018-02-25T12:09:30.423Z,3.20
2018-02-25T12:10:30.352Z,4.50
2018-02-25T12:11:30.269Z,3.00
2018-02-25T12:12:30.204Z,4.40
2018-02-25T12:13:30.130Z,3.00
2018-02-25T12:14:30.037Z,2.90
2018-02-25T12:15:29.957Z,3.50
2018-02-25T12:16:29.873Z,4.30
2018-02-25T12:17:29.805Z,4.50
2018-02-25T12:18:29.713Z,4.00
2018-02-25T12:19:29.651Z,4.50
2018-02-25T12:20:29.577Z,3.10
2018-02-25T12:21:29.473Z,4.10
2018-02-25T12:22:29.396Z,3.50
2018-02-25T12:23:29.331Z,3.20
2018-02-25T12:24:29.242Z,3.30
2018-02-25T12:25:29.168Z,3.70
2018-02-25T12:26:29.075Z,4.30
2018-02-25T12:27:29.000Z,3.20
2018-02-25T12:28:28.930Z,4.80
2018-02-25T12:29:28.840Z,3.40
2018-02-25T12:30:28.758Z,4.30
2018-02-25T12:31:28.695Z,3.60
2018-02-25T12:32:28.602Z,3.10
2018-02-25T12:33:28.714Z,5.20
2018-02-25T12:34:28.454Z,3.00
2018-02-25T12:35:28.382Z,3.10
2018-02-25T12:36:28.291Z,3.70
2018-02-25T12:37:28.231Z,3.60
2018-02-25T12:38:28.132Z,2.80
2018-02-25T12:39:28.046Z,2.90
2018-02-25T12:40:27.964Z,2.90
2018-02-25T12:41:27.956Z,3.50
2018-02-25T12:42:27.798Z,3.50
2018-02-25T12:43:27.726Z,3.10
2018-02-25T12:44:27.645Z,3.00
2018-02-25T12:45:27.563Z,2.70
2018-02-25T12:46:27.489Z,3.30
2018-02-25T12:47:27.420Z,4.00
2018-02-25T12:48:27.416Z,3.30
2018-02-25T12:49:27.256Z,3.20
2018-02-25T12:50:27.173Z,2.70
2018-02-25T12:51:27.102Z,3.40
2018-02-25T12:52:27.283Z,4.20
2018-02-25T12:53:26.935Z,3.90
2018-02-25T12:54:26.903Z,3.10
2018-02-25T12:55:26.781Z,3.30
2018-02-25T12:56:26.710Z,2.80
2018-02-25T12:57:26.610Z,3.20
2018-02-25T12:58:26.555Z,3.80
2018-02-25T12:59:26.452Z,2.80
2018-02-25T13:00:26.380Z,3.20
2018-02-25T13:01:26.295Z,3.60
2018-02-25T13:02:26.225Z,2.90
2018-02-25T13:03:26.141Z,2.80
2018-02-25T13:04:26.063Z,3.10
2018-02-25T13:05:25.974Z,3.40
2018-02-25T13:06:25.906Z,2.90
2018-02-25T13:07:25.821Z,3.10
2018-02-25T13:08:25.737Z,3.20
2018-02-25T13:09:25.652Z,3.10
2018-02-25T13:10:25.576Z,2.90
2018-02-25T13:11:25.500Z,2.80
2018-02-25T13:12:25.424Z,3.20
2018-02-25T13:13:25.461Z,2.60
2018-02-25T13:14:25.251Z,2.90
2018-02-25T13:15:25.188Z,3.40
2018-02-25T13:16:25.102Z,3.70